createdAt,value
2019-03-12T00:01:34.725Z,2.10
2019-03-12T00:04:05.228Z,2.22
2019-03-12T00:06:35.573Z,1.62
2019-03-12T00:09:07.431Z,1.72
2019-03-12T00:11:37.802Z,2.10
2019-03-12T00:14:08.183Z,1.55
2019-03-12T00:16:38.539Z,2.15
2019-03-12T00:19:08.919Z,2.58
2019-03-12T00:21:39.311Z,1.02
2019-03-12T00:24:09.644Z,1.30
2019-03-12T00:26:40.090Z,1.12
2019-03-12T00:29:10.449Z,1.95
2019-03-12T00:31:40.789Z,2.65
2019-03-12T00:34:11.185Z,1.77
2019-03-12T00:36:41.555Z,1.22
2019-03-12T00:39:11.929Z,1.52
2019-03-12T00:41:42.279Z,2.05
2019-03-12T00:44:12.615Z,1.77
2019-03-12T00:46:43.058Z,2.02
2019-03-12T00:49:13.452Z,1.72
2019-03-12T00:51:43.815Z,2.20
2019-03-12T00:54:14.212Z,1.85
2019-03-12T00:56:44.556Z,1.67
2019-03-12T00:59:14.912Z,1.85
2019-03-12T01:01:45.282Z,2.37
2019-03-12T01:04:15.746Z,2.85
2019-03-12T01:06:46.122Z,1.65
2019-03-12T01:09:16.553Z,1.45
2019-03-12T01:11:46.872Z,2.12
2019-03-12T01:14:17.244Z,1.57
2019-03-12T01:16:47.651Z,1.40
2019-03-12T01:19:18.062Z,1.22
2019-03-12T01:21:48.415Z,0.82
2019-03-12T01:24:18.806Z,1.55
2019-03-12T01:26:49.159Z,1.77
2019-03-12T01:29:19.513Z,1.10
2019-03-12T01:31:49.941Z,1.90
2019-03-12T01:34:20.326Z,2.08
2019-03-12T01:36:50.672Z,2.12
2019-03-12T01:39:21.052Z,1.87
2019-03-12T01:41:51.420Z,2.75
2019-03-12T01:44:21.796Z,1.55
2019-03-12T01:46:52.207Z,1.02
2019-03-12T01:49:22.559Z,2.52
2019-03-12T01:51:52.958Z,1.82
2019-03-12T01:54:23.358Z,1.07
2019-03-12T01:56:53.767Z,1.42
2019-03-12T01:59:24.160Z,1.82
2019-03-12T02:01:54.531Z,2.65
2019-03-12T02:04:24.986Z,1.20
2019-03-12T02:06:57.489Z,1.15
2019-03-12T02:09:27.699Z,1.07
2019-03-12T02:11:58.084Z,1.65
2019-03-12T02:14:30.258Z,2.22
2019-03-12T02:17:00.656Z,1.00
2019-03-12T02:19:31.014Z,1.35
2019-03-12T02:22:01.350Z,1.32
2019-03-12T02:24:31.751Z,1.17
2019-03-12T02:27:02.117Z,1.12
2019-03-12T02:29:32.455Z,1.40
2019-03-12T02:32:03.034Z,1.45
2019-03-12T02:34:33.403Z,0.78
2019-03-12T02:37:03.737Z,1.02
2019-03-12T02:39:34.209Z,0.33
2019-03-12T02:42:04.573Z,1.10
2019-03-12T02:44:34.938Z,0.40
2019-03-12T02:47:05.381Z,0.82
2019-03-12T02:49:35.739Z,0.78
2019-03-12T02:52:06.100Z,1.05
2019-03-12T02:54:36.592Z,0.53
2019-03-12T02:57:06.966Z,1.15
2019-03-12T02:59:37.368Z,0.75
2019-03-12T03:02:07.730Z,1.52
2019-03-12T03:04:38.115Z,0.60
2019-03-12T03:07:33.077Z,0.78
2019-03-12T03:10:03.615Z,0.85
2019-03-12T03:12:34.002Z,1.85
2019-03-12T03:15:14.586Z,1.00
2019-03-12T03:17:44.934Z,0.75
2019-03-12T03:20:15.382Z,1.22
2019-03-12T03:22:45.976Z,0.53
2019-03-12T03:25:17.448Z,0.50
2019-03-12T03:27:47.794Z,1.30
2019-03-12T03:30:21.438Z,1.27
2019-03-12T03:32:51.830Z,1.35
2019-03-12T03:35:22.240Z,1.00
2019-03-12T03:37:52.625Z,0.75
2019-03-12T03:40:23.101Z,0.80
2019-03-12T03:42:53.489Z,0.40
2019-03-12T03:45:23.907Z,0.90
2019-03-12T03:47:54.347Z,0.50
2019-03-12T03:50:24.707Z,1.15
2019-03-12T03:52:55.101Z,1.25
2019-03-12T03:55:25.455Z,2.05
2019-03-12T03:57:55.817Z,0.70
2019-03-12T04:00:26.370Z,0.82
2019-03-12T04:02:56.792Z,1.07
2019-03-12T04:05:27.183Z,0.88
2019-03-12T04:07:57.566Z,0.40
2019-03-12T04:10:27.914Z,0.72
2019-03-12T04:12:58.314Z,0.88
2019-03-12T04:15:28.668Z,1.12
2019-03-12T04:17:59.111Z,1.32
2019-03-12T04:20:29.520Z,0.47
2019-03-12T04:22:59.897Z,1.85
2019-03-12T04:25:31.812Z,1.92
2019-03-12T04:28:02.247Z,0.42
2019-03-12T04:30:32.579Z,1.10
2019-03-12T04:33:02.940Z,0.35
2019-03-12T04:35:33.388Z,0.95
2019-03-12T04:38:03.834Z,0.33
2019-03-12T04:40:34.264Z,0.42
2019-03-12T04:43:04.742Z,0.47
2019-03-12T04:45:35.157Z,0.80
2019-03-12T04:48:05.499Z,0.30
2019-03-12T04:50:35.923Z,0.82
2019-03-12T04:53:06.305Z,0.62
2019-03-12T04:55:36.845Z,0.50
2019-03-12T04:58:07.624Z,0.70
2019-03-12T05:00:38.019Z,0.53
2019-03-12T05:03:08.470Z,0.60
2019-03-12T05:05:38.893Z,1.02
2019-03-12T05:08:09.260Z,0.40
2019-03-12T05:10:39.671Z,0.53
2019-03-12T05:13:10.088Z,0.25
2019-03-12T05:15:40.434Z,0.55
2019-03-12T05:18:10.984Z,0.98
2019-03-12T05:20:41.377Z,0.45
2019-03-12T05:23:11.741Z,0.35
2019-03-12T05:25:42.452Z,0.20
2019-03-12T05:28:12.766Z,0.42
2019-03-12T05:30:43.170Z,0.50
2019-03-12T05:33:13.549Z,0.72
2019-03-12T05:35:43.900Z,0.10
2019-03-12T05:38:14.332Z,0.40
2019-03-12T05:40:44.742Z,1.80
2019-03-12T05:43:15.115Z,0.93
2019-03-12T05:45:45.513Z,0.75
2019-03-12T05:48:15.928Z,0.88
2019-03-12T05:50:46.440Z,0.10
2019-03-12T05:53:17.009Z,0.57
2019-03-12T05:55:47.398Z,1.05
2019-03-12T05:58:17.758Z,0.30
2019-03-12T06:00:48.136Z,0.80
2019-03-12T06:03:18.473Z,0.17
2019-03-12T06:05:48.852Z,0.62
2019-03-12T06:08:19.300Z,0.50
2019-03-12T06:10:49.627Z,0.65
2019-03-12T06:13:20.035Z,0.75
2019-03-12T06:15:53.093Z,0.42
2019-03-12T06:18:22.547Z,0.45
2019-03-12T06:20:52.904Z,0.93
2019-03-12T06:23:23.322Z,1.12
2019-03-12T06:25:53.717Z,0.20
2019-03-12T06:28:24.075Z,0.57
2019-03-12T06:31:13.439Z,0.47
2019-03-12T06:34:09.320Z,0.40
2019-03-12T06:36:47.495Z,0.45
2019-03-12T06:39:24.454Z,0.72
2019-03-12T06:42:22.625Z,0.20
2019-03-12T06:45:21.185Z,0.50
2019-03-12T06:48:08.850Z,0.57
2019-03-12T06:50:50.920Z,0.20
2019-03-12T06:53:38.777Z,0.45
2019-03-12T06:56:23.281Z,0.20
2019-03-12T06:59:18.482Z,1.62
2019-03-12T07:02:19.742Z,0.50
2019-03-12T07:05:20.927Z,0.47
2019-03-12T07:08:10.210Z,0.30
2019-03-12T07:10:52.030Z,0.82
2019-03-12T07:13:30.910Z,0.55
2019-03-12T07:16:20.242Z,0.75
2019-03-12T07:18:56.854Z,0.62
2019-03-12T07:21:46.196Z,0.30
2019-03-12T07:24:44.729Z,0.90
2019-03-12T07:27:27.880Z,0.45
2019-03-12T07:30:15.546Z,0.70
2019-03-12T07:33:07.387Z,0.70
2019-03-12T07:35:59.493Z,0.50
2019-03-12T07:38:54.598Z,0.47
2019-03-12T07:41:50.208Z,1.45
2019-03-12T07:44:36.216Z,0.57
2019-03-12T07:47:15.045Z,0.40
2019-03-12T07:50:07.262Z,0.35
2019-03-12T07:52:58.686Z,0.25
2019-03-12T07:55:53.222Z,0.53
2019-03-12T07:58:45.408Z,0.75
2019-03-12T08:01:28.070Z,0.50
2019-03-12T08:04:17.390Z,0.50
2019-03-12T08:07:05.199Z,0.50
2019-03-12T08:09:45.191Z,0.40
2019-03-12T08:12:28.309Z,0.57
2019-03-12T08:15:23.104Z,0.40
2019-03-12T08:18:06.372Z,0.40
2019-03-12T08:21:07.585Z,0.50
2019-03-12T08:23:51.706Z,0.42
2019-03-12T08:26:41.048Z,0.30
2019-03-12T08:29:28.891Z,0.60
2019-03-12T08:32:18.209Z,0.45
2019-03-12T08:34:58.890Z,0.55
2019-03-12T08:37:53.990Z,0.33
2019-03-12T08:40:32.489Z,0.28
2019-03-12T08:43:27.447Z,0.37
2019-03-12T08:46:18.224Z,0.30
2019-03-12T08:49:15.652Z,0.30
2019-03-12T08:51:52.006Z,0.60
2019-03-12T08:54:28.189Z,0.20
2019-03-12T08:57:20.132Z,0.50
2019-03-12T09:00:02.324Z,0.62
2019-03-12T09:02:51.672Z,0.55
2019-03-12T09:05:31.556Z,0.70
2019-03-12T09:08:14.741Z,0.40
2019-03-12T09:11:02.612Z,0.35
2019-03-12T09:13:47.900Z,0.68
2019-03-12T09:16:25.552Z,0.68
2019-03-12T09:19:29.865Z,0.15
2019-03-12T09:22:09.215Z,0.70
2019-03-12T09:25:00.654Z,0.20
2019-03-12T09:27:48.476Z,0.95
2019-03-12T09:30:36.089Z,0.50
2019-03-12T09:33:12.850Z,0.30
2019-03-12T09:35:58.501Z,0.30
2019-03-12T09:38:46.212Z,0.35
2019-03-12T09:41:34.280Z,0.37
2019-03-12T09:44:18.744Z,0.37
2019-03-12T09:47:08.400Z,0.53
2019-03-12T09:49:53.547Z,0.85
2019-03-12T09:52:37.724Z,0.35
2019-03-12T09:55:18.664Z,0.30
2019-03-12T09:58:04.845Z,0.23
2019-03-12T10:00:54.178Z,0.20
2019-03-12T10:03:39.715Z,0.20
2019-03-12T10:06:41.354Z,0.25
2019-03-12T10:09:46.524Z,0.40
2019-03-12T10:12:45.444Z,0.23
2019-03-12T10:15:37.887Z,0.65
2019-03-12T10:18:27.199Z,0.20
2019-03-12T10:21:25.568Z,0.45
2019-03-12T10:24:08.648Z,0.20
2019-03-12T10:26:57.164Z,0.15
2019-03-12T10:29:37.653Z,0.13
2019-03-12T10:32:24.166Z,0.20
2019-03-12T10:35:16.096Z,0.10
2019-03-12T10:37:55.672Z,0.20
2019-03-12T10:40:47.730Z,0.23
2019-03-12T10:43:37.044Z,0.33
2019-03-12T10:46:41.261Z,0.82
2019-03-12T10:49:11.722Z,0.13
2019-03-12T10:51:42.066Z,0.45
2019-03-12T10:54:12.460Z,0.65
2019-03-12T10:56:42.902Z,0.65
2019-03-12T10:59:13.258Z,0.33
2019-03-12T11:01:43.563Z,0.20
2019-03-12T11:04:13.949Z,0.40
2019-03-12T11:06:44.319Z,0.30
2019-03-12T11:09:14.743Z,0.17
2019-03-12T11:11:45.278Z,0.10
2019-03-12T11:14:15.673Z,0.10
2019-03-12T11:16:46.086Z,0.40
2019-03-12T11:19:16.478Z,0.28
2019-03-12T11:21:46.886Z,0.40
2019-03-12T11:24:17.263Z,0.37
2019-03-12T11:26:47.683Z,0.50
2019-03-12T11:29:18.053Z,0.30
2019-03-12T11:31:48.412Z,0.30
2019-03-12T11:34:18.844Z,0.20
2019-03-12T11:36:49.326Z,0.45
2019-03-12T11:39:19.708Z,0.10
2019-03-12T11:41:50.158Z,0.20
2019-03-12T11:44:20.540Z,0.57
2019-03-12T11:46:51.043Z,0.28
2019-03-12T11:49:21.498Z,0.37
2019-03-12T11:51:51.933Z,0.40
2019-03-12T11:54:22.297Z,0.60
2019-03-12T11:56:52.741Z,0.60
2019-03-12T11:59:23.202Z,0.55
2019-03-12T12:01:53.549Z,0.20
2019-03-12T12:04:23.950Z,0.30
2019-03-12T12:06:54.336Z,0.37
2019-03-12T12:09:24.711Z,0.30
2019-03-12T12:11:55.108Z,0.68
2019-03-12T12:14:25.485Z,0.70
2019-03-12T12:16:55.831Z,0.30
2019-03-12T12:19:26.243Z,0.23
2019-03-12T12:21:56.635Z,0.30
2019-03-12T12:24:26.996Z,0.50
2019-03-12T12:26:57.386Z,0.20
2019-03-12T12:29:27.802Z,0.50
2019-03-12T12:31:58.300Z,0.53
2019-03-12T12:34:28.678Z,0.55
2019-03-12T12:36:59.093Z,0.93
2019-03-12T12:39:29.465Z,1.00
2019-03-12T12:41:59.911Z,0.30
2019-03-12T12:44:30.409Z,0.28
2019-03-12T12:47:00.889Z,0.20
2019-03-12T12:49:31.280Z,0.37
2019-03-12T12:52:01.667Z,0.40
2019-03-12T12:54:32.070Z,0.20
2019-03-12T12:57:02.551Z,0.70
2019-03-12T12:59:32.950Z,0.30
2019-03-12T13:02:03.364Z,0.47
2019-03-12T13:04:33.778Z,0.65
2019-03-12T13:07:04.164Z,0.57
2019-03-12T13:09:34.652Z,0.30
2019-03-12T13:12:05.126Z,0.57
2019-03-12T13:14:41.451Z,0.40
2019-03-12T13:17:07.622Z,0.20
2019-03-12T13:19:38.103Z,0.42
2019-03-12T13:22:08.838Z,0.20
2019-03-12T13:24:39.227Z,0.35
2019-03-12T13:27:09.695Z,0.62
2019-03-12T13:29:40.153Z,0.10
2019-03-12T13:32:13.671Z,0.37
2019-03-12T13:34:42.725Z,0.35
2019-03-12T13:37:13.150Z,0.50
2019-03-12T13:39:43.500Z,0.28
2019-03-12T13:42:14.065Z,0.53
2019-03-12T13:44:44.491Z,0.57
2019-03-12T13:47:14.902Z,0.57
2019-03-12T13:49:45.365Z,0.50
2019-03-12T13:52:15.816Z,0.42
2019-03-12T13:54:46.335Z,0.45
2019-03-12T13:57:16.749Z,0.30
2019-03-12T13:59:47.098Z,0.65
2019-03-12T14:02:17.458Z,0.50
2019-03-12T14:04:47.893Z,0.10
2019-03-12T14:07:18.261Z,0.23
2019-03-12T14:09:48.676Z,0.70
2019-03-12T14:12:19.084Z,0.33
2019-03-12T14:14:49.630Z,0.30
2019-03-12T14:17:19.988Z,0.57
2019-03-12T14:19:50.432Z,0.47
2019-03-12T14:22:20.778Z,0.25
2019-03-12T14:24:51.127Z,0.62
2019-03-12T14:27:21.542Z,0.30
2019-03-12T14:29:51.915Z,0.40
2019-03-12T14:32:22.368Z,0.68
2019-03-12T14:34:52.789Z,0.62
2019-03-12T14:37:23.213Z,0.40
2019-03-12T14:39:53.595Z,0.30
2019-03-12T14:42:24.029Z,0.37
2019-03-12T14:44:54.392Z,0.70
2019-03-12T14:47:24.768Z,0.55
2019-03-12T14:49:55.163Z,0.30
2019-03-12T14:52:37.672Z,0.20
2019-03-12T14:55:08.554Z,0.55
2019-03-12T14:57:38.921Z,0.40
2019-03-12T15:00:21.161Z,0.30
2019-03-12T15:02:51.532Z,0.40
2019-03-12T15:05:21.923Z,0.47
2019-03-12T15:07:52.334Z,0.57
2019-03-12T15:10:22.753Z,0.40
2019-03-12T15:12:53.259Z,0.50
2019-03-12T15:15:23.636Z,0.28
2019-03-12T15:17:53.995Z,1.15
2019-03-12T15:20:24.455Z,0.30
2019-03-12T15:22:54.809Z,0.60
2019-03-12T15:25:25.181Z,0.30
2019-03-12T15:27:55.561Z,0.25
2019-03-12T15:30:25.985Z,0.42
2019-03-12T15:32:56.426Z,0.20
2019-03-12T15:35:28.067Z,0.40
2019-03-12T15:37:58.510Z,0.20
2019-03-12T15:40:28.877Z,0.30
2019-03-12T15:42:59.346Z,1.15
2019-03-12T15:45:29.766Z,0.65
2019-03-12T15:48:00.182Z,0.50
2019-03-12T15:50:30.555Z,0.35
2019-03-12T15:53:00.920Z,0.20
2019-03-12T15:55:31.311Z,0.57
2019-03-12T15:58:01.709Z,0.50
2019-03-12T16:00:32.076Z,0.30
2019-03-12T16:03:03.507Z,0.68
2019-03-12T16:05:33.929Z,0.40
2019-03-12T16:08:04.318Z,0.50
2019-03-12T16:10:34.727Z,0.62
2019-03-12T16:13:07.637Z,0.75
2019-03-12T16:15:37.861Z,0.47
2019-03-12T16:18:08.497Z,0.50
2019-03-12T16:20:38.900Z,0.30
2019-03-12T16:23:09.256Z,0.45
2019-03-12T16:25:39.658Z,0.20
2019-03-12T16:28:10.061Z,0.40
2019-03-12T16:30:40.409Z,0.90
2019-03-12T16:33:10.768Z,0.62
2019-03-12T16:35:41.181Z,0.42
2019-03-12T16:38:11.582Z,0.62
2019-03-12T16:40:41.931Z,0.30
2019-03-12T16:43:12.377Z,0.28
2019-03-12T16:45:42.721Z,0.72
2019-03-12T16:48:13.090Z,0.20
2019-03-12T16:50:43.501Z,0.57
2019-03-12T16:53:14.774Z,0.70
2019-03-12T16:55:45.160Z,0.20
2019-03-12T16:58:15.584Z,0.55
2019-03-12T17:00:47.421Z,0.30
2019-03-12T17:03:17.859Z,0.53
2019-03-12T17:05:48.489Z,0.45
2019-03-12T17:08:18.913Z,0.55
2019-03-12T17:10:55.969Z,0.40
2019-03-12T17:13:21.608Z,1.32
2019-03-12T17:15:54.795Z,0.47
2019-03-12T17:18:24.464Z,0.78
2019-03-12T17:20:55.602Z,1.00
2019-03-12T17:23:26.001Z,1.35
2019-03-12T17:25:56.710Z,0.80
2019-03-12T17:28:27.266Z,1.57
2019-03-12T17:30:57.570Z,1.15
2019-03-12T17:33:28.002Z,1.75
2019-03-12T17:35:58.398Z,1.32
2019-03-12T17:38:41.545Z,1.90
2019-03-12T17:41:00.866Z,1.30
2019-03-12T17:43:31.636Z,2.47
2019-03-12T17:46:01.994Z,1.65
2019-03-12T17:48:32.690Z,1.95
2019-03-12T17:51:03.142Z,1.77
2019-03-12T17:53:33.491Z,1.52
2019-03-12T17:56:03.956Z,1.55
2019-03-12T17:58:34.287Z,1.10
2019-03-12T18:01:04.853Z,1.25
2019-03-12T18:03:36.140Z,2.08
2019-03-12T18:06:07.703Z,1.25
2019-03-12T18:08:38.457Z,0.95
2019-03-12T18:11:09.258Z,0.95
2019-03-12T18:13:40.155Z,2.00
2019-03-12T18:16:10.740Z,1.98
2019-03-12T18:18:41.278Z,0.30
2019-03-12T18:21:11.931Z,0.10
2019-03-12T18:23:42.602Z,0.10
2019-03-12T18:26:14.261Z,0.00
2019-03-12T18:28:45.344Z,0.00
2019-03-12T18:31:16.087Z,0.00
2019-03-12T18:33:48.544Z,0.00
2019-03-12T18:36:19.997Z,0.00
2019-03-12T18:38:53.077Z,0.45
2019-03-12T18:41:24.432Z,0.08
2019-03-12T18:43:55.817Z,0.10
2019-03-12T18:46:29.647Z,0.10
2019-03-12T18:49:01.795Z,0.10
2019-03-12T18:51:33.909Z,0.62
2019-03-12T18:54:05.123Z,0.10
2019-03-12T18:56:36.768Z,1.10
2019-03-12T18:59:07.897Z,0.10
2019-03-12T19:01:38.550Z,0.13
2019-03-12T19:04:09.308Z,0.17
2019-03-12T19:06:40.022Z,0.25
2019-03-12T19:09:11.130Z,0.30
2019-03-12T19:11:41.847Z,0.10
2019-03-12T19:14:12.633Z,0.10
2019-03-12T19:16:43.585Z,0.30
2019-03-12T19:19:14.091Z,0.40
2019-03-12T19:21:44.705Z,0.40
2019-03-12T19:24:15.339Z,0.20
2019-03-12T19:26:45.982Z,0.33
2019-03-12T19:29:16.512Z,0.20
2019-03-12T19:32:02.710Z,0.60
2019-03-12T19:34:34.952Z,0.20
2019-03-12T19:37:05.863Z,0.55
2019-03-12T19:39:37.552Z,0.20
2019-03-12T19:42:08.229Z,0.47
2019-03-12T19:44:39.092Z,0.30
2019-03-12T19:47:11.607Z,0.30
2019-03-12T19:49:42.341Z,0.35
2019-03-12T19:52:13.076Z,1.10
2019-03-12T19:54:43.663Z,1.62
2019-03-12T19:57:14.117Z,0.68
2019-03-12T19:59:44.527Z,0.88
2019-03-12T20:02:16.711Z,0.47
2019-03-12T20:04:47.721Z,0.30
2019-03-12T20:07:18.131Z,0.65
2019-03-12T20:10:52.638Z,0.50
2019-03-12T20:14:11.360Z,0.30
2019-03-12T20:18:05.207Z,0.57
2019-03-12T20:22:01.467Z,0.55
2019-03-12T20:25:54.580Z,0.95
2019-03-12T20:29:31.417Z,3.22
2019-03-12T20:32:33.213Z,2.75
2019-03-12T20:35:58.377Z,2.42
2019-03-12T20:39:37.813Z,2.75
2019-03-12T20:43:12.053Z,1.47
2019-03-12T20:46:36.669Z,1.77
2019-03-12T20:50:23.349Z,1.87
2019-03-12T20:53:56.985Z,2.45
2019-03-12T20:57:22.719Z,1.37
2019-03-12T21:01:23.129Z,0.57
2019-03-12T21:04:51.283Z,0.30
2019-03-12T21:08:35.791Z,0.50
2019-03-12T21:11:59.428Z,0.35
2019-03-12T21:15:34.785Z,0.20
2019-03-12T21:18:56.871Z,0.28
2019-03-12T21:22:33.424Z,0.10
2019-03-12T21:25:38.500Z,0.20
2019-03-12T21:28:45.641Z,0.10
2019-03-12T21:31:16.130Z,0.10
2019-03-12T21:33:46.557Z,0.75
2019-03-12T21:36:16.938Z,0.20
2019-03-12T21:38:47.277Z,0.10
2019-03-12T21:41:17.670Z,0.10
2019-03-12T21:43:48.118Z,0.17
2019-03-12T21:46:18.520Z,0.20
2019-03-12T21:48:48.874Z,0.20
2019-03-12T21:51:19.266Z,0.35
2019-03-12T21:53:49.641Z,0.60
2019-03-12T21:56:20.008Z,0.40
2019-03-12T21:58:50.477Z,0.10
2019-03-12T22:01:20.836Z,0.20
2019-03-12T22:03:51.164Z,0.10
2019-03-12T22:06:21.646Z,0.20
2019-03-12T22:08:52.036Z,0.10
2019-03-12T22:11:22.603Z,0.37
2019-03-12T22:13:53.050Z,0.20
2019-03-12T22:16:23.484Z,0.20
2019-03-12T22:18:53.858Z,0.40
2019-03-12T22:21:32.211Z,0.37
2019-03-12T22:24:06.216Z,0.30
2019-03-12T22:26:36.613Z,0.30
2019-03-12T22:29:06.973Z,1.05
2019-03-12T22:31:37.362Z,0.82
2019-03-12T22:34:07.854Z,1.15
2019-03-12T22:36:38.290Z,0.60
2019-03-12T22:39:08.644Z,0.30
2019-03-12T22:41:39.237Z,0.62
2019-03-12T22:44:09.575Z,0.37
2019-03-12T22:46:39.923Z,0.60
2019-03-12T22:49:10.325Z,0.40
2019-03-12T22:51:40.792Z,0.55
2019-03-12T22:54:11.098Z,0.40
2019-03-12T22:56:41.601Z,1.02
2019-03-12T22:59:11.958Z,0.62
2019-03-12T23:01:42.488Z,0.85
2019-03-12T23:04:12.831Z,0.20
2019-03-12T23:06:43.296Z,1.15
2019-03-12T23:09:13.607Z,0.53
2019-03-12T23:11:43.991Z,0.13
2019-03-12T23:14:14.449Z,0.20
2019-03-12T23:16:44.912Z,0.37
2019-03-12T23:19:15.292Z,0.35
2019-03-12T23:21:45.616Z,0.37
2019-03-12T23:24:16.061Z,0.25
2019-03-12T23:26:46.436Z,0.10
2019-03-12T23:29:16.891Z,0.10
2019-03-12T23:31:47.303Z,0.20
2019-03-12T23:34:17.763Z,0.90
2019-03-12T23:36:48.149Z,0.40
2019-03-12T23:39:18.557Z,0.30
2019-03-12T23:41:49.821Z,0.40
2019-03-12T23:44:20.170Z,0.10
2019-03-12T23:46:50.538Z,0.60
2019-03-12T23:49:21.024Z,0.10
2019-03-12T23:51:51.384Z,0.30
2019-03-12T23:54:21.758Z,0.20
2019-03-12T23:56:52.230Z,0.10
2019-03-12T23:59:22.579Z,0.28
